Time;durP1;ratioP1;P1;durP2;ratioP2;P2;SDS_P1;SDS_P2;PMS_P1;PMS_P2;Temp;Humidity;BMP_temperature;BMP_pressure;BME280_temperature;BME280_humidity;BME280_pressure;Samples;Min_cycle;Max_cycle;Signal;HPM_P1;HPM_P2
2022/04/27 00:00:24;;;;;;;15.23;7.20;;;;;;;12.82;62.60;100675.08;124336;1099;101887;-77
2022/04/27 00:03:07;;;;;;;16.67;7.57;;;;;;;12.80;62.67;100677.67;124319;1099;104327;-77
2022/04/27 00:05:38;;;;;;;14.30;7.50;;;;;;;12.80;62.87;100682.94;124281;1099;104163;-77
2022/04/27 00:08:10;;;;;;;15.37;7.37;;;;;;;12.83;63.16;100685.66;124314;1102;104261;-77
2022/04/27 00:10:41;;;;;;;14.77;7.53;;;;;;;12.81;62.92;100687.36;124286;1099;104235;-77
2022/04/27 00:13:17;;;;;;;15.43;7.50;;;;;;;12.80;63.17;100690.84;124290;1099;104380;-77
2022/04/27 00:15:49;;;;;;;13.33;6.90;;;;;;;12.81;63.03;100692.63;124209;1099;104232;-77
2022/04/27 00:18:21;;;;;;;13.37;7.20;;;;;;;12.79;63.58;100693.42;124356;1100;104228;-77
2022/04/27 00:20:52;;;;;;;14.33;7.30;;;;;;;12.80;63.22;100689.95;124261;1099;102413;-77
2022/04/27 00:23:25;;;;;;;15.27;7.30;;;;;;;12.79;63.36;100693.42;124317;1099;104200;-77
2022/04/27 00:25:56;;;;;;;15.90;7.50;;;;;;;12.75;63.11;100687.19;124297;1099;104233;-76
2022/04/27 00:28:28;;;;;;;15.17;7.50;;;;;;;12.71;63.54;100690.56;124297;1102;102813;-77
2022/04/27 00:31:03;;;;;;;13.10;7.20;;;;;;;12.70;63.66;100691.39;124305;1099;104155;-76
2022/04/27 00:33:34;;;;;;;16.10;7.10;;;;;;;12.68;63.73;100691.34;124322;1102;104210;-78
2022/04/27 00:36:09;;;;;;;13.33;7.30;;;;;;;12.64;63.63;100693.88;124266;1102;102559;-77
2022/04/27 00:38:40;;;;;;;17.80;7.50;;;;;;;12.62;64.06;100692.91;124351;1099;104348;-77
2022/04/27 00:41:11;;;;;;;14.30;7.50;;;;;;;12.58;64.10;100698.09;124279;1102;104418;-77
2022/04/27 00:43:43;;;;;;;13.00;6.80;;;;;;;12.52;64.05;100697.89;124364;1102;104717;-75
2022/04/27 00:46:15;;;;;;;15.03;7.57;;;;;;;12.50;63.94;100702.23;124311;1099;103300;-75
2022/04/27 00:48:47;;;;;;;16.17;7.77;;;;;;;12.44;63.91;100696.77;124335;1099;103241;-76
2022/04/27 00:51:21;;;;;;;15.40;7.83;;;;;;;12.40;64.78;100701.05;124319;1102;103124;-77
2022/04/27 00:53:55;;;;;;;21.57;8.80;;;;;;;12.38;64.23;100704.48;124268;1102;104356;-77
2022/04/27 00:56:28;;;;;;;17.85;8.30;;;;;;;12.32;64.07;100696.38;124322;1099;104293;-77
2022/04/27 00:59:00;;;;;;;16.90;7.60;;;;;;;12.27;64.37;100695.36;124318;1099;104217;-77
2022/04/27 01:01:31;;;;;;;14.63;8.00;;;;;;;12.23;64.22;100702.23;124303;1102;104344;-76
2022/04/27 01:04:05;;;;;;;16.20;8.70;;;;;;;12.17;64.63;100696.77;124332;1102;104349;-76
2022/04/27 01:06:38;;;;;;;16.77;8.60;;;;;;;12.09;64.56;100698.27;124325;1102;102794;-76
2022/04/27 01:09:10;;;;;;;18.13;8.40;;;;;;;12.01;64.70;100692.76;124355;1102;104175;-77
2022/04/27 01:11:42;;;;;;;17.90;8.97;;;;;;;11.94;64.90;100689.05;124301;1099;104685;-77
2022/04/27 01:14:14;;;;;;;19.07;9.83;;;;;;;11.91;65.01;100702.05;124276;1102;102209;-77
2022/04/27 01:16:50;;;;;;;17.47;9.13;;;;;;;11.86;65.17;100715.05;124254;1102;104178;-76
2022/04/27 01:19:23;;;;;;;20.07;9.60;;;;;;;11.79;65.27;100720.92;124260;1102;104051;-77
2022/04/27 01:21:55;;;;;;;17.97;9.27;;;;;;;11.76;65.23;100714.68;124346;1099;102810;-77
2022/04/27 01:24:27;;;;;;;19.53;9.80;;;;;;;11.70;65.38;100712.72;124307;1099;104195;-78
2022/04/27 01:26:59;;;;;;;17.93;9.67;;;;;;;11.64;66.03;100709.88;124409;1102;104325;-76
2022/04/27 01:29:32;;;;;;;21.40;10.90;;;;;;;11.61;65.44;100710.69;124314;1099;104355;-77
2022/04/27 01:32:05;;;;;;;20.23;11.07;;;;;;;11.60;65.85;100708.89;124347;1099;104246;-77
2022/04/27 01:34:36;;;;;;;20.40;10.80;;;;;;;11.62;66.06;100719.45;124367;1099;103242;-77
2022/04/27 01:40:02;;;;;;;18.83;9.70;;;;;;;11.54;66.48;100713.05;124318;1102;102159;-77
2022/04/27 01:42:34;;;;;;;18.23;8.75;;;;;;;11.46;66.55;100716.28;124336;1099;103075;-77
2022/04/27 01:45:07;;;;;;;18.30;9.30;;;;;;;11.37;66.49;100717.70;124243;1102;102929;-76
2022/04/27 01:47:40;;;;;;;19.97;8.90;;;;;;;11.29;66.55;100720.05;124414;1102;104220;-76
2022/04/27 01:50:12;;;;;;;19.13;9.17;;;;;;;11.22;66.67;100716.31;124328;1100;104341;-77
2022/04/27 01:55:34;;;;;;;19.07;8.93;;;;;;;11.13;66.71;100714.23;124452;1099;104243;-76
2022/04/27 01:58:06;;;;;;;16.93;9.07;;;;;;;11.11;66.70;100715.92;124306;1102;104179;-76
2022/04/27 02:00:38;;;;;;;17.83;9.73;;;;;;;11.11;67.10;100718.55;124358;1102;104220;-77
2022/04/27 02:03:09;;;;;;;17.40;9.53;;;;;;;11.13;66.94;100710.72;124368;1099;102155;-76
2022/04/27 02:05:43;;;;;;;18.47;9.47;;;;;;;11.14;67.55;100715.12;124359;1099;104246;-76
2022/04/27 02:08:14;;;;;;;16.00;9.10;;;;;;;11.13;67.67;100719.48;124373;1102;104159;-78
2022/04/27 02:10:46;;;;;;;19.13;8.83;;;;;;;11.11;67.76;100715.92;124392;1103;104076;-76
2022/04/27 02:13:19;;;;;;;18.03;8.77;;;;;;;11.09;68.26;100717.58;124182;1102;102012;-76
2022/04/27 02:15:51;;;;;;;16.07;8.23;;;;;;;11.05;68.09;100720.95;124422;1102;102423;-77
2022/04/27 02:18:37;;;;;;;16.30;8.87;;;;;;;11.01;67.68;100720.77;124413;1102;102268;-77
2022/04/27 02:21:08;;;;;;;;;;;;;;;10.98;67.28;100716.29;124414;1102;104348;-78
2022/04/27 02:23:40;;;;;;;16.80;8.33;;;;;;;10.97;67.40;100712.78;124319;1102;104419;-77
2022/04/27 02:26:13;;;;;;;17.07;8.17;;;;;;;11.02;67.98;100712.95;124367;1102;104170;-76
2022/04/27 02:28:45;;;;;;;18.53;8.70;;;;;;;11.05;68.14;100722.69;124415;1102;102987;-77
2022/04/27 02:31:16;;;;;;;16.67;8.67;;;;;;;11.04;68.48;100719.14;124458;1102;104220;-77
2022/04/27 02:33:48;;;;;;;17.80;8.67;;;;;;;11.05;68.60;100718.32;124401;1102;103356;-76
2022/04/27 02:36:21;;;;;;;15.20;8.00;;;;;;;11.06;68.64;100724.45;124141;1102;104261;-76
2022/04/27 02:38:53;;;;;;;15.85;8.80;;;;;;;11.06;68.46;100725.34;124391;1102;104351;-77
2022/04/27 02:41:25;;;;;;;20.10;9.17;;;;;;;11.07;68.31;100734.12;124376;1102;104154;-77
2022/04/27 02:43:57;;;;;;;16.90;8.83;;;;;;;11.10;68.50;100736.88;124494;1102;104361;-77
2022/04/27 02:46:28;;;;;;;17.17;8.57;;;;;;;11.11;68.51;100731.67;124361;1102;104338;-77
2022/04/27 02:51:52;;;;;;;16.97;8.57;;;;;;;11.14;68.49;100731.80;124399;1102;102874;-76
2022/04/27 02:54:46;;;;;;;17.17;9.20;;;;;;;11.17;68.42;100743.23;124530;1102;104290;-78
2022/04/27 02:57:18;;;;;;;15.13;8.33;;;;;;;11.22;68.87;100747.84;124393;1102;104233;-76
2022/04/27 02:59:51;;;;;;;16.15;8.78;;;;;;;11.28;68.53;100749.77;124391;1099;104698;-76
2022/04/27 03:02:24;;;;;;;21.40;9.53;;;;;;;11.35;68.91;100743.92;124267;1101;104326;-77
2022/04/27 03:04:56;;;;;;;15.47;8.17;;;;;;;11.40;68.79;100744.97;124349;1099;104207;-77
2022/04/27 03:07:30;;;;;;;18.20;8.25;;;;;;;11.43;69.00;100750.33;124408;1099;104162;-78
2022/04/27 03:10:02;;;;;;;19.42;9.15;;;;;;;11.45;68.51;100750.39;124428;1099;104682;-77
2022/04/27 03:12:35;;;;;;;15.83;8.53;;;;;;;11.44;68.64;100754.77;124378;1102;104315;-77
2022/04/27 03:15:09;;;;;;;16.80;8.50;;;;;;;11.43;68.70;100762.59;124384;1102;104274;-77
2022/04/27 03:17:41;;;;;;;15.60;8.33;;;;;;;11.43;68.74;100758.22;124412;1099;104163;-77
2022/04/27 03:20:14;;;;;;;18.43;9.30;;;;;;;11.41;68.76;100762.53;124345;1099;104220;-77
2022/04/27 03:22:46;;;;;;;19.70;9.20;;;;;;;11.46;69.05;100760.08;124313;1099;104179;-77
2022/04/27 03:25:17;;;;;;;17.40;8.87;;;;;;;11.47;68.84;100757.50;124350;1099;104166;-77
2022/04/27 03:27:49;;;;;;;17.53;9.07;;;;;;;11.48;68.76;100756.67;124305;1102;102303;-77
2022/04/27 03:30:20;;;;;;;17.90;9.30;;;;;;;11.47;69.01;100767.12;124342;1102;102920;-76
2022/04/27 03:32:54;;;;;;;19.17;9.00;;;;;;;11.44;69.11;100764.39;124448;1102;104387;-77
2022/04/27 03:35:26;;;;;;;17.57;8.87;;;;;;;11.41;69.04;100767.79;124423;1099;104067;-76
2022/04/27 03:37:59;;;;;;;19.37;9.23;;;;;;;11.39;69.25;100773.81;124413;1102;102959;-76
2022/04/27 03:40:32;;;;;;;19.23;9.47;;;;;;;11.36;69.02;100779.87;124289;1099;102292;-76
2022/04/27 03:43:04;;;;;;;15.83;8.43;;;;;;;11.35;69.04;100785.95;124395;1102;105467;-76
2022/04/27 03:45:36;;;;;;;18.70;9.40;;;;;;;11.33;68.77;100775.39;124341;1102;104338;-77
2022/04/27 03:48:08;;;;;;;20.17;9.40;;;;;;;11.36;69.05;100779.87;124361;1099;101963;-77
2022/04/27 03:50:40;;;;;;;21.23;9.93;;;;;;;11.38;69.23;100780.81;124268;1102;104386;-76
2022/04/27 03:53:12;;;;;;;21.40;10.17;;;;;;;11.50;69.54;100785.64;124279;1099;104220;-76
2022/04/27 03:55:44;;;;;;;18.27;9.97;;;;;;;11.59;69.54;100787.68;124413;1102;101911;-77
2022/04/27 03:58:16;;;;;;;17.80;9.47;;;;;;;11.61;69.77;100785.99;124549;1099;104150;-77
2022/04/27 04:00:48;;;;;;;18.63;9.27;;;;;;;11.57;69.42;100778.86;124456;1102;104233;-78
2022/04/27 04:03:23;;;;;;;19.63;9.60;;;;;;;11.53;69.71;100784.83;124450;1102;104156;-78
2022/04/27 04:05:56;;;;;;;18.80;9.17;;;;;;;11.50;69.56;100783.01;124881;1099;104333;-78
2022/04/27 04:08:32;;;;;;;17.27;8.63;;;;;;;11.49;69.63;100784.72;124569;1099;104118;-78
2022/04/27 04:11:03;;;;;;;19.60;9.60;;;;;;;11.47;69.61;100781.16;124471;1099;104163;-78
2022/04/27 04:13:52;;;;;;;18.60;9.90;;;;;;;11.48;69.71;100793.46;124932;1099;103028;-78
2022/04/27 04:16:29;;;;;;;20.37;9.70;;;;;;;11.51;69.63;100787.41;124820;1099;103131;-78
2022/04/27 04:19:33;;;;;;;23.40;9.93;;;;;;;11.55;69.61;100793.69;124549;1099;104712;-77
2022/04/27 04:22:32;;;;;;;17.40;9.77;;;;;;;11.61;69.65;100804.39;124977;1099;104175;-77
2022/04/27 04:30:59;;;;;;;20.17;9.77;;;;;;;11.79;69.96;100810.31;124895;1099;102954;-77
2022/04/27 04:33:40;;;;;;;22.70;10.27;;;;;;;11.84;69.83;100807.85;124517;1099;104326;-77
2022/04/27 04:36:13;;;;;;;18.53;9.83;;;;;;;11.83;70.16;100806.97;124870;1099;104159;-78
2022/04/27 04:38:48;;;;;;;18.40;8.80;;;;;;;11.81;69.79;100818.26;124928;1099;102915;-77
2022/04/27 04:41:28;;;;;;;19.60;9.60;;;;;;;11.80;70.15;100817.38;124753;1099;104159;-76
2022/04/27 04:44:04;;;;;;;18.93;9.27;;;;;;;11.84;69.90;100819.28;124483;1103;104522;-76
2022/04/27 04:46:50;;;;;;;18.83;9.77;;;;;;;11.92;70.16;100816.02;124402;1102;104169;-76
2022/04/27 04:49:45;;;;;;;21.83;10.10;;;;;;;12.02;70.12;100818.17;124383;1102;104163;-75
2022/04/27 04:52:35;;;;;;;19.40;9.67;;;;;;;12.17;69.94;100830.94;124535;1099;104329;-76
2022/04/27 04:55:35;;;;;;;17.93;9.50;;;;;;;12.31;70.07;100826.15;124708;1099;104307;-75
2022/04/27 04:58:25;;;;;;;18.77;9.40;;;;;;;12.37;69.80;100834.25;124990;1099;103084;-74
2022/04/27 05:01:19;;;;;;;20.68;9.78;;;;;;;12.47;69.90;100840.74;124658;1099;104185;-75
2022/04/27 05:04:10;;;;;;;19.10;9.70;;;;;;;12.57;70.21;100835.84;124755;1099;104182;-75
2022/04/27 05:06:58;;;;;;;17.47;8.90;;;;;;;12.66;70.05;100835.22;124522;1099;101860;-75
2022/04/27 05:09:37;;;;;;;20.80;8.70;;;;;;;12.74;70.21;100840.73;124528;1102;104338;-75
2022/04/27 05:12:28;;;;;;;20.83;9.73;;;;;;;12.93;70.22;100843.13;124937;1099;102877;-76
2022/04/27 05:15:16;;;;;;;18.27;9.00;;;;;;;13.12;69.89;100841.07;125416;1099;104226;-76
2022/04/27 05:18:17;;;;;;;16.90;7.97;;;;;;;13.35;69.53;100838.25;125277;1099;104196;-77
2022/04/27 05:21:08;;;;;;;22.70;8.17;;;;;;;13.60;69.78;100840.77;125671;1099;102457;-77
2022/04/27 05:27:24;;;;;;;13.80;6.77;;;;;;;14.03;68.90;100844.58;125244;1099;119359;-78
2022/04/27 05:33:50;;;;;;;16.13;6.77;;;;;;;14.44;67.81;100859.72;125080;1099;102730;-78
2022/04/27 05:36:48;;;;;;;16.47;6.60;;;;;;;14.61;67.05;100868.11;124565;1099;102251;-78
2022/04/27 05:39:30;;;;;;;13.10;6.03;;;;;;;14.64;65.80;100867.30;125022;1099;104308;-77
2022/04/27 05:42:20;;;;;;;12.00;5.87;;;;;;;14.73;65.80;100878.98;125162;1099;102275;-79
2022/04/27 05:45:02;;;;;;;10.20;5.13;;;;;;;14.81;65.00;100875.64;125003;1099;102688;-79
2022/04/27 05:48:02;;;;;;;15.03;5.80;;;;;;;14.91;64.60;100872.34;124847;1099;104304;-79
2022/04/27 05:51:07;;;;;;;12.07;5.70;;;;;;;15.10;65.76;100881.63;124640;1099;104162;-78
2022/04/27 05:53:51;;;;;;;13.78;6.20;;;;;;;15.22;65.40;100881.00;125101;1099;101800;-78
2022/04/27 05:56:43;;;;;;;11.45;5.45;;;;;;;15.29;65.28;100877.64;125083;1099;102982;-76
2022/04/27 05:59:18;;;;;;;16.10;6.00;;;;;;;15.33;64.06;100887.41;125229;1099;108172;-79
2022/04/27 06:01:52;;;;;;;15.67;5.97;;;;;;;15.31;63.31;100893.55;125290;1098;104163;-78
2022/04/27 06:04:29;;;;;;;11.23;5.23;;;;;;;15.25;62.01;100889.91;125097;1099;104316;-78
2022/04/27 06:07:07;;;;;;;12.10;4.77;;;;;;;15.24;61.71;100892.52;125431;1099;104130;-79
2022/04/27 06:09:47;;;;;;;11.80;5.30;;;;;;;15.20;61.01;100893.30;125035;1102;118510;-77
2022/04/27 06:12:36;;;;;;;10.60;4.83;;;;;;;15.25;61.39;100894.28;125016;1102;104559;-78
2022/04/27 06:15:32;;;;;;;7.80;4.12;;;;;;;15.26;61.58;100891.67;124637;1102;104296;-78
2022/04/27 06:18:09;;;;;;;9.57;4.53;;;;;;;15.24;61.57;100903.09;124732;1102;104304;-78
2022/04/27 06:20:41;;;;;;;10.00;4.70;;;;;;;15.25;61.37;100905.78;124643;1103;102883;-78
2022/04/27 06:23:17;;;;;;;10.60;4.60;;;;;;;15.19;60.46;100894.14;124469;1102;102457;-79
2022/04/27 06:26:05;;;;;;;11.87;4.33;;;;;;;15.14;60.38;100888.75;124332;1102;102507;-78
2022/04/27 06:28:51;;;;;;;10.30;4.60;;;;;;;15.03;59.11;100890.25;124387;1102;104166;-79
2022/04/27 06:34:24;;;;;;;11.17;4.23;;;;;;;14.99;60.05;100894.59;125070;1102;101906;-78
2022/04/27 06:36:58;;;;;;;;;;;;;;;14.96;57.33;100896.23;124797;1102;104224;-79
2022/04/27 06:39:45;;;;;;;10.43;4.60;;;;;;;14.96;59.07;100904.16;124690;1102;104179;-77
2022/04/27 06:45:55;;;;;;;11.63;4.37;;;;;;;15.05;57.63;100910.59;124777;1102;104163;-78
2022/04/27 06:49:16;;;;;;;8.90;4.50;;;;;;;15.14;59.22;100912.54;124487;1103;104349;-79
2022/04/27 06:52:06;;;;;;;10.43;4.67;;;;;;;15.25;59.27;100915.44;124562;1105;102534;-80
2022/04/27 06:55:06;;;;;;;10.37;4.37;;;;;;;15.30;58.06;100918.19;124301;1105;104260;-78
2022/04/27 06:58:04;;;;;;;9.57;4.23;;;;;;;15.37;57.26;100914.84;124219;1102;102823;-79
2022/04/27 07:00:33;;;;;;;13.40;4.60;;;;;;;15.44;57.11;100911.45;124314;1102;104297;-77
2022/04/27 07:03:09;;;;;;;10.67;4.83;;;;;;;15.57;57.47;100917.93;124582;1102;104207;-79
2022/04/27 07:06:03;;;;;;;9.70;4.97;;;;;;;15.74;57.08;100921.83;124661;1102;102085;-78
2022/04/27 07:08:34;;;;;;;9.03;4.20;;;;;;;15.99;57.99;100922.38;124516;1102;104160;-78
2022/04/27 07:11:12;;;;;;;8.73;4.00;;;;;;;16.17;57.81;100919.18;124415;1102;101941;-78
2022/04/27 07:14:05;;;;;;;10.03;4.13;;;;;;;16.48;57.12;100919.77;124535;1102;102396;-80
2022/04/27 07:16:37;;;;;;;10.90;4.23;;;;;;;16.62;55.61;100915.59;124509;1102;105461;-78
2022/04/27 07:19:10;;;;;;;7.93;3.43;;;;;;;16.75;56.53;100915.81;124579;1102;102035;-77
2022/04/27 07:21:46;;;;;;;14.40;4.00;;;;;;;16.97;56.01;100911.78;124360;1102;104188;-80
2022/04/27 07:24:21;;;;;;;10.37;4.00;;;;;;;17.29;55.95;100916.70;124274;1102;103929;-80
2022/04/27 07:27:08;;;;;;;6.50;3.47;;;;;;;17.53;55.19;100914.41;125100;1102;104265;-77
2022/04/27 07:29:43;;;;;;;11.00;3.60;;;;;;;17.87;55.13;100898.93;124401;1102;104214;-77
2022/04/27 07:32:19;;;;;;;6.10;2.97;;;;;;;18.16;54.65;100894.86;124598;1102;102620;-78
2022/04/27 07:34:51;;;;;;;9.27;3.20;;;;;;;18.47;54.78;100893.39;124487;1102;104258;-77
2022/04/27 07:37:24;;;;;;;7.40;2.90;;;;;;;18.75;53.16;100889.21;125144;1102;107043;-76
2022/04/27 07:39:55;;;;;;;6.27;2.93;;;;;;;19.02;52.32;100899.19;124397;1102;104168;-77
2022/04/27 07:42:39;;;;;;;5.37;2.87;;;;;;;19.08;50.23;100901.02;124633;1102;104216;-78
2022/04/27 07:45:11;;;;;;;4.70;2.70;;;;;;;18.89;49.79;100902.66;124470;1102;104306;-78
2022/04/27 07:47:41;;;;;;;7.75;3.30;;;;;;;18.88;50.48;100907.95;124520;1102;102845;-76
2022/04/27 07:50:16;;;;;;;5.60;3.22;;;;;;;19.06;51.49;100905.45;124481;1102;104287;-77
2022/04/27 07:52:50;;;;;;;8.23;3.00;;;;;;;19.19;51.16;100909.95;124460;1102;104290;-78
2022/04/27 07:55:20;;;;;;;9.73;3.27;;;;;;;19.29;49.82;100910.92;124459;1102;104159;-76
2022/04/27 07:57:54;;;;;;;7.53;3.10;;;;;;;19.41;50.38;100910.09;124449;1105;102274;-76
2022/04/27 08:00:24;;;;;;;4.30;2.40;;;;;;;19.42;48.36;100903.91;124393;1102;104545;-75
2022/04/27 08:02:58;;;;;;;7.63;2.83;;;;;;;19.64;49.51;100912.00;124533;1102;104236;-77
2022/04/27 08:05:31;;;;;;;5.43;2.67;;;;;;;19.84;48.71;100917.46;124436;1102;104336;-77
2022/04/27 08:08:06;;;;;;;4.43;2.60;;;;;;;19.74;47.64;100920.05;124300;1102;108066;-77
2022/04/27 08:10:38;;;;;;;7.53;3.10;;;;;;;19.67;48.19;100918.22;124296;1105;104207;-77
2022/04/27 08:13:10;;;;;;;8.97;2.80;;;;;;;19.64;47.38;100928.86;124211;1102;104393;-77
2022/04/27 08:15:47;;;;;;;5.83;2.70;;;;;;;19.59;47.06;100925.29;124158;1105;104482;-78
2022/04/27 08:18:16;;;;;;;4.40;2.83;;;;;;;19.49;47.91;100924.32;124180;1102;102158;-77
2022/04/27 08:23:40;;;;;;;13.87;3.10;;;;;;;19.33;46.88;100923.34;124160;1102;102438;-76
2022/04/27 08:26:13;;;;;;;6.28;3.25;;;;;;;19.15;46.85;100907.27;124207;1102;102967;-77
2022/04/27 08:29:00;;;;;;;19.63;3.63;;;;;;;19.00;47.78;100913.38;124140;1102;102858;-78
2022/04/27 08:31:33;;;;;;;5.03;3.03;;;;;;;18.71;48.61;100906.00;124119;1105;104741;-77
2022/04/27 08:34:02;;;;;;;6.50;2.97;;;;;;;18.42;48.67;100892.47;124144;1103;104217;-76
2022/04/27 08:36:40;;;;;;;7.10;3.37;;;;;;;18.24;48.80;100894.05;124182;1102;102208;-76
2022/04/27 08:39:09;;;;;;;5.80;3.07;;;;;;;18.02;48.84;100895.58;124326;1102;104338;-76
2022/04/27 08:41:44;;;;;;;5.57;3.00;;;;;;;17.83;48.55;100902.41;124451;1102;104382;-79
2022/04/27 08:44:20;;;;;;;9.70;3.40;;;;;;;17.68;48.56;100897.78;124362;1102;104172;-78
2022/04/27 08:46:52;;;;;;;13.17;2.83;;;;;;;17.55;48.32;100896.73;124388;1102;104210;-78
2022/04/27 08:49:21;;;;;;;6.07;2.70;;;;;;;17.48;48.51;100897.52;124268;1102;104236;-77
2022/04/27 08:51:50;;;;;;;6.40;3.13;;;;;;;17.41;48.19;100908.93;124467;1102;103525;-76
2022/04/27 08:54:22;;;;;;;9.57;3.20;;;;;;;17.35;48.28;100908.84;124323;1102;103536;-77
2022/04/27 08:56:52;;;;;;;9.93;3.30;;;;;;;17.33;48.53;100902.63;124323;1102;104277;-76
2022/04/27 08:59:21;;;;;;;5.73;3.23;;;;;;;17.34;48.31;100907.96;124412;1102;104357;-78
2022/04/27 09:01:56;;;;;;;4.93;3.10;;;;;;;17.41;48.16;100906.28;124424;1102;104315;-76
2022/04/27 09:04:30;;;;;;;4.50;3.00;;;;;;;17.60;48.42;100910.06;124418;1101;103267;-77
2022/04/27 09:07:18;;;;;;;7.43;3.60;;;;;;;17.87;48.11;100909.55;124340;1102;104360;-77
2022/04/27 09:09:49;;;;;;;7.27;3.27;;;;;;;18.12;47.75;100901.87;124315;1102;104235;-77
2022/04/27 09:12:23;;;;;;;11.13;4.00;;;;;;;18.28;47.67;100895.87;124419;1102;102581;-78
2022/04/27 09:14:52;;;;;;;6.60;3.50;;;;;;;18.42;46.97;100903.10;124382;1102;104254;-78
2022/04/27 09:23:23;;;;;;;4.77;3.00;;;;;;;18.67;46.30;100893.58;124405;1102;104345;-75
2022/04/27 09:25:55;;;;;;;6.20;2.90;;;;;;;18.59;45.30;100884.63;124282;1102;104204;-78
2022/04/27 09:28:30;;;;;;;7.47;2.97;;;;;;;18.57;45.40;100881.08;124356;1102;104179;-77
2022/04/27 09:31:00;;;;;;;5.27;2.80;;;;;;;18.64;45.39;100885.58;124577;1102;118181;-79
2022/04/27 09:33:34;;;;;;;5.90;2.90;;;;;;;18.71;45.33;100876.77;124374;1100;104169;-77
2022/04/27 09:36:19;;;;;;;4.40;3.03;;;;;;;18.76;45.02;100883.03;124399;1102;103094;-77
2022/04/27 09:38:49;;;;;;;4.93;2.87;;;;;;;18.74;44.76;100873.25;124333;1102;104313;-78
2022/04/27 09:41:42;;;;;;;4.50;3.10;;;;;;;18.75;44.82;100880.36;124443;1102;102416;-77
2022/04/27 09:44:27;;;;;;;7.37;3.03;;;;;;;18.85;44.60;100877.83;124440;1102;102848;-77
2022/04/27 09:47:00;;;;;;;6.40;3.10;;;;;;;18.98;45.00;100885.86;124412;1102;104063;-77
2022/04/27 09:49:33;;;;;;;5.90;3.20;;;;;;;19.01;45.01;100883.22;124497;1102;104248;-78
2022/04/27 09:55:21;;;;;;;4.62;3.25;;;;;;;19.04;45.44;100878.84;124756;1102;104163;-78
2022/04/27 09:58:10;;;;;;;8.73;3.30;;;;;;;19.08;44.46;100884.18;124428;1102;104233;-79
2022/04/27 10:00:41;;;;;;;4.90;3.20;;;;;;;19.08;44.01;100884.18;124448;1102;104328;-77
2022/04/27 10:03:14;;;;;;;;;;;;;;;19.12;44.64;100883.30;124475;1102;104208;-78
2022/04/27 10:05:45;;;;;;;9.27;3.80;;;;;;;19.20;44.46;100879.82;124354;1102;104176;-78
2022/04/27 10:08:14;;;;;;;7.33;3.23;;;;;;;19.42;44.72;100879.95;124357;1102;104048;-77
2022/04/27 10:10:45;;;;;;;4.87;2.90;;;;;;;19.55;44.45;100871.13;124419;1102;102973;-75
2022/04/27 10:13:19;;;;;;;7.43;3.30;;;;;;;19.56;43.23;100874.70;124423;1102;104218;-78
2022/04/27 10:15:49;;;;;;;4.03;3.23;;;;;;;19.53;42.62;100872.02;124442;1103;102343;-76
2022/04/27 10:18:20;;;;;;;5.67;3.20;;;;;;;19.55;43.83;100867.59;124444;1102;104169;-76
2022/04/27 10:20:51;;;;;;;4.07;3.20;;;;;;;19.67;43.73;100864.98;124411;1102;104175;-76
2022/04/27 10:23:24;;;;;;;5.53;3.20;;;;;;;19.79;44.01;100873.92;124443;1102;102312;-77
2022/04/27 10:26:17;;;;;;;8.23;3.40;;;;;;;19.89;43.34;100867.76;124730;1102;103278;-78
2022/04/27 10:28:49;;;;;;;7.00;3.13;;;;;;;19.76;43.88;100874.79;124415;1102;104165;-77
2022/04/27 10:32:05;;;;;;;8.20;3.27;;;;;;;19.49;42.21;100870.22;124389;1102;104233;-76
2022/04/27 10:34:34;;;;;;;5.23;3.13;;;;;;;19.38;40.73;100872.82;124511;1102;102258;-77
2022/04/27 10:37:07;;;;;;;7.70;3.60;;;;;;;19.39;42.69;100864.84;124453;1102;103360;-76
2022/04/27 10:39:43;;;;;;;4.30;2.97;;;;;;;19.50;42.25;100869.34;124460;1102;104367;-76
2022/04/27 10:42:29;;;;;;;4.80;2.93;;;;;;;19.63;43.23;100863.17;124545;1102;102762;-76
2022/04/27 10:45:22;;;;;;;13.43;3.43;;;;;;;19.72;42.76;100865.88;124518;1102;102700;-76
2022/04/27 10:47:51;;;;;;;5.73;2.90;;;;;;;19.95;42.33;100854.47;124502;1102;103661;-76
2022/04/27 10:50:30;;;;;;;5.03;2.97;;;;;;;20.13;42.61;100858.92;124461;1102;104272;-77
2022/04/27 10:53:18;;;;;;;7.92;3.35;;;;;;;20.23;41.65;100858.07;124374;1102;104274;-76
2022/04/27 10:55:53;;;;;;;4.00;3.00;;;;;;;20.40;41.53;100865.22;124407;1102;102486;-77
2022/04/27 10:58:42;;;;;;;4.33;3.17;;;;;;;20.60;42.61;100865.20;124477;1102;104175;-76
2022/04/27 11:01:23;;;;;;;5.57;3.40;;;;;;;20.63;40.88;100863.45;124324;1102;102406;-78
2022/04/27 11:04:15;;;;;;;4.37;3.17;;;;;;;20.82;41.58;100864.35;124402;1102;104165;-76
2022/04/27 11:07:23;;;;;;;4.80;3.00;;;;;;;20.94;40.83;100860.80;124363;1102;103000;-77
2022/04/27 11:10:13;;;;;;;6.87;3.23;;;;;;;20.97;41.16;100857.22;124310;1102;103299;-77
2022/04/27 11:12:44;;;;;;;4.53;3.47;;;;;;;21.06;40.87;100854.53;124138;1102;104688;-75
2022/04/27 11:15:16;;;;;;;5.10;3.07;;;;;;;20.96;40.74;100859.01;124321;1102;102298;-76
2022/04/27 11:17:51;;;;;;;5.00;3.20;;;;;;;20.99;41.44;100850.13;124285;1102;104208;-76
2022/04/27 11:20:28;;;;;;;7.43;3.50;;;;;;;21.06;40.53;100853.66;124299;1102;104232;-77
2022/04/27 11:22:58;;;;;;;5.90;3.20;;;;;;;20.97;41.07;100841.21;124352;1102;104363;-75
2022/04/27 11:25:30;;;;;;;5.90;3.40;;;;;;;20.93;41.10;100843.01;124333;1102;104631;-77
2022/04/27 11:28:00;;;;;;;5.53;3.23;;;;;;;20.85;39.76;100844.80;124331;1102;104198;-76
2022/04/27 11:30:34;;;;;;;7.73;3.50;;;;;;;20.80;40.60;100838.56;124377;1102;104294;-77
2022/04/27 11:33:08;;;;;;;6.43;4.20;;;;;;;20.86;41.00;100825.22;124387;1102;104262;-76
2022/04/27 11:35:44;;;;;;;6.20;3.33;;;;;;;20.90;39.93;100832.34;124373;1102;102276;-75
2022/04/27 11:38:19;;;;;;;6.43;3.53;;;;;;;20.88;40.35;100825.22;124321;1102;103561;-75
2022/04/27 11:40:49;;;;;;;4.73;3.40;;;;;;;20.90;39.93;100823.46;124376;1102;104160;-76
2022/04/27 11:43:25;;;;;;;6.57;3.23;;;;;;;21.03;39.68;100821.66;124384;1102;104225;-76
2022/04/27 11:45:57;;;;;;;8.53;3.20;;;;;;;21.08;40.10;100812.72;124334;1102;102916;-77
2022/04/27 11:48:30;;;;;;;9.37;3.50;;;;;;;21.13;40.03;100802.04;124435;1102;104158;-76
2022/04/27 11:51:00;;;;;;;5.20;3.20;;;;;;;21.28;40.60;100801.11;124390;1102;104226;-76
2022/04/27 11:53:30;;;;;;;7.15;2.90;;;;;;;21.35;39.58;100802.87;124410;1102;104233;-76
2022/04/27 11:56:06;;;;;;;8.37;3.30;;;;;;;21.31;39.68;100787.76;124516;1102;103526;-76
2022/04/27 11:58:40;;;;;;;6.97;3.50;;;;;;;21.29;39.61;100786.89;124349;1102;102460;-75
2022/04/27 12:01:21;;;;;;;10.80;3.53;;;;;;;21.41;39.87;100786.84;124321;1102;104258;-76
2022/04/27 12:03:58;;;;;;;8.55;3.75;;;;;;;21.47;40.12;100786.81;124432;1102;110877;-77
2022/04/27 12:06:38;;;;;;;5.17;3.27;;;;;;;21.47;38.20;100784.14;124701;1102;102004;-76
2022/04/27 12:09:27;;;;;;;6.13;3.17;;;;;;;21.40;38.77;100777.05;124370;1102;102772;-76
2022/04/27 12:12:11;;;;;;;4.80;3.10;;;;;;;21.47;39.25;100769.89;124376;1102;104235;-76
2022/04/27 12:15:08;;;;;;;7.67;3.80;;;;;;;21.50;38.74;100770.81;124388;1099;103342;-77
2022/04/27 12:17:58;;;;;;;10.07;3.30;;;;;;;21.39;38.80;100774.38;124339;1100;104297;-76
2022/04/27 12:20:38;;;;;;;5.47;3.13;;;;;;;21.31;39.03;100782.42;124407;1102;104166;-76
2022/04/27 12:23:14;;;;;;;5.17;3.23;;;;;;;21.12;38.00;100771.81;124413;1099;102431;-78
2022/04/27 12:25:49;;;;;;;9.70;3.30;;;;;;;21.03;38.57;100776.30;124348;1100;104177;-77
2022/04/27 12:28:32;;;;;;;8.50;3.27;;;;;;;20.91;38.71;100770.12;124439;1102;104865;-77